Airfield :
LOGIN :

Register | Disclaimer

   EN    FR    IT 

 










Legend :    VFR   Marginal VFR   IFR   Intensive IFR   Very Intensive IFR
Visi :
Ceiling :
>= 8 km
>= 3000ft
5 to 8 km
1000 to 3000 ft
1500m to 5 km
500 to 1000 ft
800 to 1500m
200 to 500 ft
< 800m
< 200 ft
Symbols :   Thunderstorms  Fog  Heavy snow  Heavy precipitations  Wind > 20 kt
SIGMETs :     Misc.  Thunderstorms  Icing  Turbulence  Mountain Waves  Volcanic Ashes







- Airport Elevation : 56 ft
- IATA code : ILY
- Download approach charts


EGPI - Islay

CURRENT METAR :
  • 230450Z AUTO 11007KT 080V150 9999 SCT012/// BKN021/// 04/03 Q0978 RERA

EXPIRED METARs :
  • 230420Z AUTO 12005KT 9999 SCT021/// SCT036/// 03/03 Q0979 RERA
  • 230350Z AUTO 14007KT 4000 RA FEW013/// BKN016/// 03/03 Q0979
  • 230320Z AUTO 21010KT 8000 RA FEW016/// BKN022/// 04/03 Q0979
  • 230250Z AUTO 21014KT 9999 -RADZ FEW026/// SCT031/// 05/03 Q0979
  • 230220Z AUTO 23013KT 9999 FEW021/// 05/03 Q0978

TAF TAF EGPI
Valid from the 23 at 03:00 until the 23 at 12:00 UTC


230202Z 2303/2312 24009KT 9999 SCT030
TEMPO 2303/2312 6000 SHRA BKN009
PROB30
TEMPO 2303/2312 3000 +SHRA BKN004
BECMG 2309/2312 34018G28KT
No reported NOTAMs for that airfield.
1 SIGMET reported for the Scottish FIR (EGPX) :
 
Severe turbulence
EGPX SIGMET 01 VALID 230200/230600 EGRR
EGPX SCOTTISH FIR SEV TURB FCST SE OF LINE N5500 E00126 - N5756 E00327 SFC/FL060 MOV E 15KT NC=



MET'MAP, your aeronautical weather chart ! - Copyright ORBIFLY December 2007 - Disclaimer

ORBIFLY MET'MAP TEAM :

Programming & Development : Alexandra Zaïnal
Concept & Development : Baudouin d'Aumeries
Co-Development & Prog : Marc-Olivier Méhu
Technical & hardware support : Manuel Goepfert

Contact : metmap@orbifly.com




SOURCES & CREDITS :

   NOAA